createdAt,value
2023-04-30T00:00:10.868Z,85.16
2023-04-30T00:01:10.804Z,85.27
2023-04-30T00:02:10.855Z,85.27
2023-04-30T00:03:10.850Z,85.27
2023-04-30T00:04:10.835Z,85.37
2023-04-30T00:05:10.756Z,85.47
2023-04-30T00:06:10.787Z,85.47
2023-04-30T00:07:10.742Z,85.47
2023-04-30T00:08:10.725Z,85.57
2023-04-30T00:09:10.707Z,85.68
2023-04-30T00:10:10.714Z,85.57
2023-04-30T00:11:10.673Z,85.57
2023-04-30T00:12:10.669Z,85.88
2023-04-30T00:13:10.647Z,85.88
2023-04-30T00:14:10.637Z,85.98
2023-04-30T00:15:10.620Z,85.98
2023-04-30T00:16:10.612Z,85.98
2023-04-30T00:17:10.605Z,85.88
2023-04-30T00:18:10.609Z,85.77
2023-04-30T00:19:10.560Z,85.88
2023-04-30T00:20:10.555Z,85.77
2023-04-30T00:21:10.534Z,85.77
2023-04-30T00:22:10.558Z,85.88
2023-04-30T00:23:10.520Z,85.77
2023-04-30T00:24:10.513Z,85.77
2023-04-30T00:25:10.498Z,85.77
2023-04-30T00:26:10.465Z,85.88
2023-04-30T00:27:10.472Z,85.98
2023-04-30T00:28:10.442Z,85.98
2023-04-30T00:29:10.427Z,85.98
2023-04-30T00:30:10.416Z,86.08
2023-04-30T00:31:10.403Z,86.08
2023-04-30T00:32:10.439Z,86.08
2023-04-30T00:33:10.438Z,86.18
2023-04-30T00:34:10.354Z,86.29
2023-04-30T00:35:10.345Z,86.39
2023-04-30T00:36:10.333Z,86.39
2023-04-30T00:37:10.346Z,86.29
2023-04-30T00:38:10.300Z,86.39
2023-04-30T00:39:10.290Z,86.39
2023-04-30T00:40:10.292Z,86.22
2023-04-30T00:41:10.263Z,86.22
2023-04-30T00:42:10.262Z,86.33
2023-04-30T00:43:10.240Z,86.33
2023-04-30T00:44:10.222Z,86.33
2023-04-30T00:45:10.213Z,86.43
2023-04-30T00:46:10.224Z,86.43
2023-04-30T00:47:10.202Z,86.43
2023-04-30T00:48:10.163Z,86.63
2023-04-30T00:49:10.151Z,86.53
2023-04-30T00:50:10.149Z,86.63
2023-04-30T00:51:10.144Z,86.63
2023-04-30T00:52:10.127Z,86.63
2023-04-30T00:53:10.103Z,86.73
2023-04-30T00:54:10.090Z,86.63
2023-04-30T00:55:10.079Z,86.63
2023-04-30T00:56:10.093Z,86.83
2023-04-30T00:57:10.061Z,86.83
2023-04-30T00:58:10.033Z,86.73
2023-04-30T00:59:10.030Z,86.83
2023-04-30T01:00:10.000Z,86.83
2023-04-30T01:01:10.010Z,86.94
2023-04-30T01:02:10.026Z,86.94
2023-04-30T01:03:10.046Z,87.04
2023-04-30T01:04:09.947Z,87.14
2023-04-30T01:05:09.955Z,87.29
2023-04-30T01:06:09.984Z,87.35
2023-04-30T01:07:09.922Z,87.59
2023-04-30T01:08:09.900Z,87.70
2023-04-30T01:09:09.892Z,87.70
2023-04-30T01:10:09.877Z,87.79
2023-04-30T01:11:09.855Z,87.70
2023-04-30T01:12:09.877Z,87.79
2023-04-30T01:13:09.833Z,87.90
2023-04-30T01:14:09.848Z,88.00
2023-04-30T01:15:09.804Z,88.10
2023-04-30T01:16:09.820Z,88.00
2023-04-30T01:17:09.789Z,88.00
2023-04-30T01:18:09.864Z,88.10
2023-04-30T01:19:09.787Z,88.10
2023-04-30T01:20:09.736Z,88.20
2023-04-30T01:21:09.723Z,88.20
2023-04-30T01:22:09.761Z,88.10
2023-04-30T01:23:09.718Z,88.10
2023-04-30T01:24:09.680Z,88.00
2023-04-30T01:25:09.682Z,88.00
2023-04-30T01:26:09.657Z,88.00
2023-04-30T01:27:09.658Z,88.10
2023-04-30T01:28:09.649Z,88.00
2023-04-30T01:29:09.621Z,88.10
2023-04-30T01:30:09.606Z,88.00
2023-04-30T01:31:09.606Z,88.10
2023-04-30T01:32:09.589Z,88.00
2023-04-30T01:33:09.615Z,88.10
2023-04-30T01:34:09.590Z,88.10
2023-04-30T01:35:09.538Z,88.20
2023-04-30T01:36:09.522Z,88.31
2023-04-30T01:37:09.530Z,88.10
2023-04-30T01:38:09.496Z,88.20
2023-04-30T01:39:09.483Z,88.20
2023-04-30T01:40:09.470Z,88.31
2023-04-30T01:41:09.462Z,88.20
2023-04-30T01:42:09.471Z,88.20
2023-04-30T01:43:09.436Z,88.00
2023-04-30T01:44:09.438Z,88.10
2023-04-30T01:45:09.408Z,88.10
2023-04-30T01:46:09.412Z,88.45
2023-04-30T01:47:09.394Z,88.55
2023-04-30T01:48:09.384Z,88.65
2023-04-30T01:49:09.362Z,88.55
2023-04-30T01:50:09.344Z,88.55
2023-04-30T01:51:09.331Z,88.61
2023-04-30T01:52:09.337Z,88.65
2023-04-30T01:53:09.307Z,88.76
2023-04-30T01:54:09.296Z,88.65
2023-04-30T01:55:09.283Z,88.61
2023-04-30T01:56:09.264Z,88.65
2023-04-30T01:57:09.272Z,88.76
2023-04-30T01:58:09.241Z,88.85
2023-04-30T01:59:09.224Z,88.85
2023-04-30T02:00:09.240Z,88.85
2023-04-30T02:01:09.219Z,88.85
2023-04-30T02:02:09.200Z,88.76
2023-04-30T02:03:09.267Z,88.76
2023-04-30T02:04:09.162Z,88.85
2023-04-30T02:05:09.161Z,88.85
2023-04-30T02:06:09.155Z,88.85
2023-04-30T02:07:09.133Z,88.76
2023-04-30T02:08:09.115Z,88.76
2023-04-30T02:09:09.097Z,88.85
2023-04-30T02:10:09.080Z,88.85
2023-04-30T02:11:09.068Z,88.76
2023-04-30T02:12:09.083Z,88.76
2023-04-30T02:13:09.046Z,88.65
2023-04-30T02:14:09.037Z,88.76
2023-04-30T02:15:09.035Z,88.76
2023-04-30T02:16:09.064Z,88.65
2023-04-30T02:17:09.002Z,88.76
2023-04-30T02:18:09.034Z,88.76
2023-04-30T02:19:08.961Z,88.76
2023-04-30T02:20:08.943Z,88.76
2023-04-30T02:21:08.934Z,88.76
2023-04-30T02:22:08.949Z,88.76
2023-04-30T02:23:08.904Z,88.76
2023-04-30T02:24:08.901Z,88.76
2023-04-30T02:25:08.896Z,88.76
2023-04-30T02:26:08.882Z,88.76
2023-04-30T02:27:08.862Z,88.55
2023-04-30T02:28:08.884Z,88.55
2023-04-30T02:29:08.838Z,88.45
2023-04-30T02:30:08.816Z,88.35
2023-04-30T02:31:08.799Z,88.35
2023-04-30T02:32:08.806Z,88.24
2023-04-30T02:33:08.881Z,88.24
2023-04-30T02:34:08.761Z,88.35
2023-04-30T02:35:08.747Z,88.35
2023-04-30T02:36:08.740Z,88.35
2023-04-30T02:37:08.718Z,88.35
2023-04-30T02:38:08.723Z,88.35
2023-04-30T02:39:08.698Z,88.45
2023-04-30T02:40:08.699Z,88.35
2023-04-30T02:41:08.674Z,88.35
2023-04-30T02:42:08.657Z,88.35
2023-04-30T02:43:08.654Z,88.35
2023-04-30T02:44:08.624Z,88.35
2023-04-30T02:45:08.627Z,88.14
2023-04-30T02:46:08.648Z,88.14
2023-04-30T02:47:08.586Z,88.04
2023-04-30T02:48:08.656Z,88.04
2023-04-30T02:49:08.562Z,88.14
2023-04-30T02:50:08.554Z,87.94
2023-04-30T02:51:08.540Z,87.84
2023-04-30T02:52:08.518Z,87.73
2023-04-30T02:53:08.535Z,87.63
2023-04-30T02:54:08.512Z,87.63
2023-04-30T02:55:08.479Z,87.63
2023-04-30T02:56:08.481Z,87.63
2023-04-30T02:57:08.503Z,87.63
2023-04-30T02:58:08.443Z,87.63
2023-04-30T02:59:08.440Z,87.53
2023-04-30T03:00:08.420Z,87.43
2023-04-30T03:01:08.443Z,87.53
2023-04-30T03:02:08.432Z,87.53
2023-04-30T03:03:08.508Z,87.43
2023-04-30T03:04:08.379Z,87.53
2023-04-30T03:05:08.367Z,87.73
2023-04-30T03:06:08.392Z,88.04
2023-04-30T03:07:08.324Z,88.65
2023-04-30T03:08:08.324Z,89.11
2023-04-30T03:09:08.296Z,89.20
2023-04-30T03:10:08.281Z,89.20
2023-04-30T03:11:08.271Z,89.11
2023-04-30T03:12:08.270Z,89.20
2023-04-30T03:13:08.262Z,89.31
2023-04-30T03:14:08.237Z,89.20
2023-04-30T03:15:08.219Z,89.41
2023-04-30T03:16:08.266Z,89.31
2023-04-30T03:17:08.213Z,89.31
2023-04-30T03:18:08.247Z,89.00
2023-04-30T03:19:08.173Z,89.00
2023-04-30T03:20:08.186Z,88.90
2023-04-30T03:21:08.143Z,89.00
2023-04-30T03:22:08.139Z,89.00
2023-04-30T03:23:08.140Z,89.00
2023-04-30T03:24:08.118Z,89.00
2023-04-30T03:25:08.093Z,89.11
2023-04-30T03:26:08.089Z,89.20
2023-04-30T03:27:08.066Z,89.20
2023-04-30T03:28:08.076Z,89.20
2023-04-30T03:29:08.057Z,89.31
2023-04-30T03:30:08.032Z,89.31
2023-04-30T03:31:08.066Z,89.41
2023-04-30T03:32:08.010Z,89.51
2023-04-30T03:33:08.130Z,89.41
2023-04-30T03:34:07.978Z,89.51
2023-04-30T03:35:07.966Z,89.51
2023-04-30T03:36:07.974Z,89.41
2023-04-30T03:37:07.943Z,89.41
2023-04-30T03:38:07.936Z,89.31
2023-04-30T03:39:07.917Z,89.31
2023-04-30T03:40:07.899Z,89.20
2023-04-30T03:41:07.887Z,89.31
2023-04-30T03:42:07.890Z,89.20
2023-04-30T03:43:07.882Z,89.31
2023-04-30T03:44:07.850Z,89.20
2023-04-30T03:45:07.851Z,89.00
2023-04-30T03:46:07.948Z,89.11
2023-04-30T03:47:07.876Z,89.00
2023-04-30T03:48:07.834Z,88.79
2023-04-30T03:49:07.788Z,88.90
2023-04-30T03:50:07.774Z,88.79
2023-04-30T03:51:07.755Z,88.79
2023-04-30T03:52:07.763Z,88.65
2023-04-30T03:53:07.750Z,88.65
2023-04-30T03:54:07.722Z,88.70
2023-04-30T03:55:07.716Z,88.55
2023-04-30T03:56:07.697Z,88.49
2023-04-30T03:57:07.759Z,88.39
2023-04-30T03:58:07.692Z,88.29
2023-04-30T03:59:07.660Z,88.18
2023-04-30T04:00:07.661Z,88.08
2023-04-30T04:01:07.636Z,87.98
2023-04-30T04:02:07.757Z,88.08
2023-04-30T04:03:07.735Z,88.08
2023-04-30T04:04:07.676Z,87.88
2023-04-30T04:05:07.578Z,87.73
2023-04-30T04:06:07.686Z,87.73
2023-04-30T04:07:07.554Z,87.73
2023-04-30T04:08:07.579Z,87.63
2023-04-30T04:09:07.542Z,87.63
2023-04-30T04:10:07.530Z,87.53
2023-04-30T04:11:07.499Z,87.32
2023-04-30T04:12:07.482Z,87.32
2023-04-30T04:13:07.488Z,87.23
2023-04-30T04:14:07.481Z,87.43
2023-04-30T04:15:07.462Z,87.47
2023-04-30T04:16:07.478Z,87.23
2023-04-30T04:17:07.420Z,87.16
2023-04-30T04:18:07.519Z,87.12
2023-04-30T04:19:07.390Z,87.12
2023-04-30T04:20:07.390Z,87.16
2023-04-30T04:21:07.370Z,87.06
2023-04-30T04:22:07.358Z,87.02
2023-04-30T04:23:07.362Z,86.82
2023-04-30T04:24:07.355Z,86.71
2023-04-30T04:25:07.344Z,86.71
2023-04-30T04:26:07.305Z,86.91
2023-04-30T04:27:07.316Z,86.82
2023-04-30T04:28:07.295Z,86.71
2023-04-30T04:29:07.261Z,86.61
2023-04-30T04:30:07.252Z,86.61
2023-04-30T04:31:07.259Z,86.51
2023-04-30T04:32:07.350Z,86.51
2023-04-30T04:33:07.388Z,86.41
2023-04-30T04:34:07.202Z,86.30
2023-04-30T04:35:07.189Z,86.20
2023-04-30T04:36:07.170Z,86.20
2023-04-30T04:37:07.163Z,86.20
2023-04-30T04:38:07.146Z,86.20
2023-04-30T04:39:07.153Z,86.10
2023-04-30T04:40:07.148Z,86.00
2023-04-30T04:41:07.110Z,86.00
2023-04-30T04:42:07.087Z,85.96
2023-04-30T04:43:07.082Z,85.75
2023-04-30T04:44:07.079Z,85.65
2023-04-30T04:45:07.048Z,85.45
2023-04-30T04:46:07.056Z,85.35
2023-04-30T04:47:07.024Z,85.35
2023-04-30T04:48:07.074Z,85.04
2023-04-30T04:49:07.007Z,85.04
2023-04-30T04:50:06.982Z,84.83
2023-04-30T04:51:07.025Z,84.69
2023-04-30T04:52:06.964Z,84.39
2023-04-30T04:53:06.947Z,84.28
2023-04-30T04:54:06.941Z,84.18
2023-04-30T04:55:06.914Z,83.84
2023-04-30T04:56:06.918Z,83.63
2023-04-30T04:57:06.889Z,83.53
2023-04-30T04:58:06.876Z,83.23
2023-04-30T04:59:06.875Z,83.33
2023-04-30T05:00:06.847Z,83.33
2023-04-30T05:01:06.833Z,83.33
2023-04-30T05:02:06.850Z,83.23
2023-04-30T05:03:06.910Z,83.02
2023-04-30T05:04:06.901Z,83.02
2023-04-30T05:05:06.792Z,83.23
2023-04-30T05:06:06.785Z,82.92
2023-04-30T05:07:06.757Z,82.71
2023-04-30T05:08:06.744Z,82.57
2023-04-30T05:09:06.744Z,82.61
2023-04-30T05:10:06.721Z,82.71
2023-04-30T05:11:06.702Z,82.51
2023-04-30T05:12:06.712Z,82.51
2023-04-30T05:13:06.679Z,82.51
2023-04-30T05:14:06.687Z,82.61
2023-04-30T05:15:06.696Z,82.47
2023-04-30T05:16:06.706Z,82.47
2023-04-30T05:17:06.629Z,82.27
2023-04-30T05:18:06.652Z,81.72
2023-04-30T05:19:06.613Z,81.35
2023-04-30T05:20:06.590Z,81.82
2023-04-30T05:21:06.575Z,81.21
2023-04-30T05:22:06.571Z,80.77
2023-04-30T05:23:06.546Z,79.57
2023-04-30T05:24:06.554Z,77.53
2023-04-30T05:25:06.530Z,75.39
2023-04-30T05:26:06.509Z,73.25
2023-04-30T05:27:06.500Z,71.26
2023-04-30T05:28:06.622Z,69.48
2023-04-30T05:29:06.491Z,68.30
2023-04-30T05:30:06.465Z,67.46
2023-04-30T05:31:06.439Z,66.19
2023-04-30T05:32:06.457Z,65.41
2023-04-30T05:33:06.432Z,65.41
2023-04-30T05:34:06.447Z,64.67
2023-04-30T05:35:06.391Z,64.34
2023-04-30T05:36:06.374Z,64.24
2023-04-30T05:37:06.361Z,63.93
2023-04-30T05:38:06.348Z,63.20
2023-04-30T05:39:06.358Z,62.87
2023-04-30T05:40:06.335Z,62.37
2023-04-30T05:41:06.308Z,62.24
2023-04-30T05:42:06.304Z,61.73
2023-04-30T05:43:06.281Z,61.50
2023-04-30T05:44:06.302Z,60.97
2023-04-30T05:45:06.261Z,60.24
2023-04-30T05:46:06.697Z,60.69
2023-04-30T05:47:06.231Z,60.69
2023-04-30T05:48:06.270Z,61.00
2023-04-30T05:49:06.226Z,61.10
2023-04-30T05:50:06.225Z,60.80
2023-04-30T05:51:06.185Z,60.60
2023-04-30T05:52:06.168Z,60.57
2023-04-30T05:53:06.147Z,59.41
2023-04-30T05:54:06.150Z,59.30
2023-04-30T05:55:06.119Z,58.09
2023-04-30T05:56:06.119Z,59.10
2023-04-30T05:57:06.095Z,59.03
2023-04-30T05:58:09.060Z,59.10
2023-04-30T05:59:06.093Z,58.27
2023-04-30T06:00:06.098Z,57.84
2023-04-30T06:01:06.046Z,57.08
2023-04-30T06:02:06.067Z,56.58
2023-04-30T06:03:06.112Z,56.61
2023-04-30T06:04:06.014Z,57.01
2023-04-30T06:05:06.026Z,57.24
2023-04-30T06:06:06.121Z,57.24
2023-04-30T06:07:05.964Z,56.61
2023-04-30T06:08:05.959Z,56.61
2023-04-30T06:09:05.937Z,55.65
2023-04-30T06:10:06.086Z,55.13
2023-04-30T06:11:05.912Z,54.39
2023-04-30T06:12:05.903Z,54.57
2023-04-30T06:13:05.885Z,53.94
2023-04-30T06:14:05.873Z,53.44
2023-04-30T06:15:05.872Z,52.82
2023-04-30T06:16:05.936Z,52.49
2023-04-30T06:17:05.836Z,52.37
2023-04-30T06:18:05.864Z,53.47
2023-04-30T06:19:05.810Z,52.94
2023-04-30T06:20:05.838Z,53.22
2023-04-30T06:21:05.781Z,54.75
2023-04-30T06:22:05.767Z,54.62
2023-04-30T06:23:05.762Z,53.89
2023-04-30T06:24:05.744Z,53.47
2023-04-30T06:25:05.742Z,53.02
2023-04-30T06:26:05.722Z,51.87
2023-04-30T06:27:05.697Z,51.04
2023-04-30T06:28:05.700Z,53.82
2023-04-30T06:29:05.695Z,54.77
2023-04-30T06:30:05.678Z,55.02
2023-04-30T06:31:05.663Z,53.87
2023-04-30T06:32:08.176Z,53.27
2023-04-30T06:33:05.640Z,53.09
2023-04-30T06:34:05.626Z,51.79
2023-04-30T06:35:05.611Z,53.42
2023-04-30T06:36:05.583Z,53.27
2023-04-30T06:37:05.566Z,53.55
2023-04-30T06:38:05.556Z,53.00
2023-04-30T06:39:05.543Z,52.59
2023-04-30T06:40:05.553Z,50.94
2023-04-30T06:41:05.518Z,53.57
2023-04-30T06:42:05.506Z,54.17
2023-04-30T06:43:05.484Z,53.75
2023-04-30T06:44:05.477Z,52.69
2023-04-30T06:45:05.470Z,52.80
2023-04-30T06:46:05.473Z,54.07
2023-04-30T06:47:05.435Z,53.85
2023-04-30T06:48:05.636Z,52.59
2023-04-30T06:49:05.409Z,51.44
2023-04-30T06:50:05.417Z,50.09
2023-04-30T06:51:05.390Z,53.02
2023-04-30T06:52:05.371Z,54.48
2023-04-30T06:53:05.345Z,53.50
2023-04-30T06:54:05.337Z,51.62
2023-04-30T06:55:05.342Z,50.46
2023-04-30T06:56:05.308Z,51.84
2023-04-30T06:57:05.295Z,51.54
2023-04-30T06:58:05.289Z,51.12
2023-04-30T06:59:05.273Z,49.69
2023-04-30T07:00:05.270Z,50.62
2023-04-30T07:01:05.297Z,52.87
2023-04-30T07:02:05.235Z,52.19
2023-04-30T07:03:05.277Z,50.14
2023-04-30T07:04:05.227Z,50.29
2023-04-30T07:05:05.230Z,49.15
2023-04-30T07:06:05.221Z,47.60
2023-04-30T07:07:05.171Z,45.51
2023-04-30T07:08:05.150Z,46.38
2023-04-30T07:09:05.138Z,45.26
2023-04-30T07:10:05.162Z,45.18
2023-04-30T07:11:05.112Z,44.73
2023-04-30T07:12:05.101Z,45.23
2023-04-30T07:13:05.090Z,44.61
2023-04-30T07:14:05.063Z,44.27
2023-04-30T07:15:05.056Z,44.96
2023-04-30T07:16:05.160Z,45.54
2023-04-30T07:17:05.031Z,44.60
2023-04-30T07:18:05.080Z,43.79
2023-04-30T07:19:05.003Z,41.82
2023-04-30T07:20:05.025Z,44.25
2023-04-30T07:21:05.008Z,45.85
2023-04-30T07:22:04.966Z,45.68
2023-04-30T07:23:04.946Z,45.36
2023-04-30T07:24:04.936Z,44.57
2023-04-30T07:25:04.925Z,44.15
2023-04-30T07:26:04.931Z,43.51
2023-04-30T07:27:04.908Z,43.88
2023-04-30T07:28:04.894Z,43.96
2023-04-30T07:29:04.881Z,43.76
2023-04-30T07:30:04.862Z,43.42
2023-04-30T07:31:04.903Z,41.69
2023-04-30T07:32:04.851Z,39.78
2023-04-30T07:33:04.869Z,43.49
2023-04-30T07:34:04.802Z,42.91
2023-04-30T07:35:04.784Z,44.06
2023-04-30T07:36:04.826Z,46.33
2023-04-30T07:37:04.766Z,45.14
2023-04-30T07:38:04.773Z,43.58
2023-04-30T07:39:04.737Z,47.77
2023-04-30T07:40:04.720Z,48.57
2023-04-30T07:41:04.724Z,47.64
2023-04-30T07:42:04.697Z,48.30
2023-04-30T07:43:04.767Z,46.53
2023-04-30T07:44:04.667Z,45.56
2023-04-30T07:45:04.655Z,45.29
2023-04-30T07:46:04.697Z,43.53
2023-04-30T07:47:04.636Z,43.26
2023-04-30T07:48:04.652Z,43.55
2023-04-30T07:49:04.601Z,44.98
2023-04-30T07:50:04.592Z,44.88
2023-04-30T07:51:04.593Z,44.92
2023-04-30T07:52:04.589Z,45.09
2023-04-30T07:53:04.555Z,44.17
2023-04-30T07:54:04.540Z,41.77
2023-04-30T07:55:04.531Z,43.24
2023-04-30T07:56:04.538Z,44.00
2023-04-30T07:57:04.503Z,45.06
2023-04-30T07:58:04.485Z,44.42
2023-04-30T07:59:04.474Z,43.16
2023-04-30T08:00:04.462Z,44.52
2023-04-30T08:01:04.464Z,45.47
2023-04-30T08:02:04.482Z,46.61
2023-04-30T08:03:04.552Z,45.65
2023-04-30T08:04:04.473Z,44.72
2023-04-30T08:05:04.393Z,46.25
2023-04-30T08:06:04.429Z,46.70
2023-04-30T08:07:04.380Z,46.81
2023-04-30T08:08:04.376Z,45.40
2023-04-30T08:09:04.352Z,42.93
2023-04-30T08:10:04.338Z,40.46
2023-04-30T08:11:04.353Z,38.83
2023-04-30T08:12:04.314Z,38.58
2023-04-30T08:13:04.292Z,38.38
2023-04-30T08:14:04.291Z,38.05
2023-04-30T08:15:04.301Z,36.96
2023-04-30T08:16:04.326Z,37.83
2023-04-30T08:17:04.394Z,37.12
2023-04-30T08:18:04.280Z,37.60
2023-04-30T08:19:04.217Z,37.08
2023-04-30T08:20:04.207Z,37.10
2023-04-30T08:21:04.204Z,38.92
2023-04-30T08:22:04.179Z,38.68
2023-04-30T08:23:04.163Z,38.85
2023-04-30T08:24:04.173Z,39.43
2023-04-30T08:25:04.144Z,39.40
2023-04-30T08:26:04.142Z,38.67
2023-04-30T08:27:04.125Z,37.77
2023-04-30T08:28:04.100Z,37.40
2023-04-30T08:29:04.087Z,36.41
2023-04-30T08:30:04.073Z,35.63
2023-04-30T08:31:04.107Z,38.18
2023-04-30T08:32:04.152Z,39.34
2023-04-30T08:33:04.127Z,42.46
2023-04-30T08:34:04.021Z,45.01
2023-04-30T08:35:04.012Z,45.13
2023-04-30T08:36:04.015Z,44.20
2023-04-30T08:37:03.982Z,42.07
2023-04-30T08:38:03.970Z,42.35
2023-04-30T08:39:03.963Z,41.69
2023-04-30T08:40:03.964Z,39.45
2023-04-30T08:41:03.952Z,41.30
2023-04-30T08:42:03.917Z,41.30
2023-04-30T08:43:03.908Z,41.69
2023-04-30T08:44:04.782Z,44.01
2023-04-30T08:45:03.900Z,43.66
2023-04-30T08:46:03.908Z,42.31
2023-04-30T08:47:03.872Z,40.70
2023-04-30T08:48:03.941Z,40.48
2023-04-30T08:49:03.841Z,39.65
2023-04-30T08:50:03.818Z,38.82
2023-04-30T08:51:03.824Z,37.91
2023-04-30T08:52:03.793Z,36.92
2023-04-30T08:53:03.790Z,37.93
2023-04-30T08:54:03.763Z,38.60
2023-04-30T08:55:03.754Z,39.00
2023-04-30T08:56:03.826Z,38.68
2023-04-30T08:57:03.748Z,37.65
2023-04-30T08:58:03.714Z,37.91
2023-04-30T08:59:03.710Z,36.49
2023-04-30T09:00:03.708Z,36.43
2023-04-30T09:01:03.766Z,36.10
2023-04-30T09:02:03.836Z,36.06
2023-04-30T09:03:03.760Z,36.10
2023-04-30T09:04:03.736Z,35.77
2023-04-30T09:05:03.629Z,37.67
2023-04-30T09:06:03.638Z,37.85
2023-04-30T09:07:04.493Z,38.00
2023-04-30T09:08:04.553Z,39.40
2023-04-30T09:09:03.575Z,40.24
2023-04-30T09:10:03.574Z,39.86
2023-04-30T09:11:03.568Z,39.39
2023-04-30T09:12:03.625Z,38.34
2023-04-30T09:13:03.554Z,36.00
2023-04-30T09:14:03.578Z,40.23
2023-04-30T09:15:03.613Z,42.71
2023-04-30T09:16:03.526Z,40.66
2023-04-30T09:17:03.498Z,41.39
2023-04-30T09:18:03.537Z,40.92
2023-04-30T09:19:03.461Z,40.01
2023-04-30T09:20:03.434Z,37.57
2023-04-30T09:21:03.422Z,37.55
2023-04-30T09:22:03.425Z,36.24
2023-04-30T09:23:03.396Z,36.03
2023-04-30T09:24:03.406Z,36.31
2023-04-30T09:25:03.419Z,35.89
2023-04-30T09:26:04.086Z,35.50
2023-04-30T09:27:03.364Z,35.98
2023-04-30T09:28:03.366Z,35.47
2023-04-30T09:29:03.326Z,35.09
2023-04-30T09:30:03.317Z,35.32
2023-04-30T09:31:03.320Z,36.71
2023-04-30T09:32:03.437Z,35.86
2023-04-30T09:33:03.321Z,35.63
2023-04-30T09:34:03.288Z,34.91
2023-04-30T09:35:03.266Z,34.12
2023-04-30T09:36:03.457Z,34.63
2023-04-30T09:37:04.252Z,34.53
2023-04-30T09:38:03.233Z,34.79
2023-04-30T09:39:03.213Z,35.60
2023-04-30T09:40:03.190Z,35.38
2023-04-30T09:41:03.186Z,35.53
2023-04-30T09:42:03.180Z,34.89
2023-04-30T09:43:03.180Z,34.38
2023-04-30T09:44:03.156Z,33.89
2023-04-30T09:45:03.136Z,33.18
2023-04-30T09:46:03.136Z,33.08
2023-04-30T09:47:03.286Z,32.77
2023-04-30T09:48:16.475Z,32.48
2023-04-30T09:49:03.083Z,32.89
2023-04-30T09:50:03.102Z,33.00
2023-04-30T09:51:03.063Z,32.98
2023-04-30T09:52:03.063Z,33.00
2023-04-30T09:53:03.028Z,33.69
2023-04-30T09:54:03.020Z,32.31
2023-04-30T09:55:03.003Z,32.06
2023-04-30T09:56:03.027Z,34.55
2023-04-30T09:57:03.047Z,33.54
2023-04-30T09:58:02.974Z,33.69
2023-04-30T09:59:02.971Z,33.26
2023-04-30T10:00:02.998Z,33.34
2023-04-30T10:01:02.984Z,32.56
2023-04-30T10:02:02.935Z,32.21
2023-04-30T10:03:02.945Z,33.31
2023-04-30T10:04:02.970Z,33.89
2023-04-30T10:05:02.881Z,32.79
2023-04-30T10:06:02.899Z,32.34
2023-04-30T10:07:02.885Z,37.92
2023-04-30T10:08:02.845Z,37.95
2023-04-30T10:09:02.859Z,42.32
2023-04-30T10:10:02.829Z,40.22
2023-04-30T10:11:02.812Z,38.62
2023-04-30T10:12:02.799Z,36.76
2023-04-30T10:13:02.806Z,35.72
2023-04-30T10:14:02.770Z,35.58
2023-04-30T10:15:02.798Z,36.16
2023-04-30T10:16:02.803Z,34.46
2023-04-30T10:17:02.817Z,34.27
2023-04-30T10:18:02.811Z,34.50
2023-04-30T10:19:02.717Z,35.17
2023-04-30T10:20:02.697Z,34.30
2023-04-30T10:21:02.691Z,35.16
2023-04-30T10:22:02.689Z,39.04
2023-04-30T10:23:02.696Z,40.36
2023-04-30T10:24:02.666Z,39.27
2023-04-30T10:25:02.638Z,38.28
2023-04-30T10:26:02.631Z,37.04
2023-04-30T10:27:02.615Z,36.68
2023-04-30T10:28:04.687Z,37.49
2023-04-30T10:29:02.620Z,36.66
2023-04-30T10:30:02.577Z,37.04
2023-04-30T10:31:02.568Z,36.90
2023-04-30T10:32:02.584Z,37.23
2023-04-30T10:33:02.618Z,37.09
2023-04-30T10:34:02.531Z,36.98
2023-04-30T10:35:02.516Z,36.43
2023-04-30T10:36:02.504Z,35.68
2023-04-30T10:37:02.489Z,35.04
2023-04-30T10:38:02.490Z,34.12
2023-04-30T10:39:02.480Z,33.20
2023-04-30T10:40:02.457Z,32.98
2023-04-30T10:41:02.440Z,33.17
2023-04-30T10:42:02.425Z,32.84
2023-04-30T10:43:02.442Z,32.85
2023-04-30T10:44:02.476Z,34.43
2023-04-30T10:45:02.399Z,32.72
2023-04-30T10:46:02.430Z,33.84
2023-04-30T10:47:02.378Z,33.94
2023-04-30T10:48:02.424Z,34.13
2023-04-30T10:49:02.383Z,34.27
2023-04-30T10:50:02.337Z,33.65
2023-04-30T10:51:02.340Z,33.84
2023-04-30T10:52:02.304Z,33.95
2023-04-30T10:53:02.297Z,34.08
2023-04-30T10:54:02.296Z,34.17
2023-04-30T10:55:02.269Z,33.94
2023-04-30T10:56:02.258Z,33.95
2023-04-30T10:57:02.255Z,34.13
2023-04-30T10:58:02.245Z,34.22
2023-04-30T10:59:02.237Z,32.51
2023-04-30T11:00:02.220Z,32.79
2023-04-30T11:01:02.257Z,33.17
2023-04-30T11:02:02.229Z,31.29
2023-04-30T11:03:02.201Z,34.82
2023-04-30T11:04:02.182Z,33.69
2023-04-30T11:05:02.186Z,32.84
2023-04-30T11:06:02.150Z,31.85
2023-04-30T11:07:02.135Z,31.28
2023-04-30T11:08:02.142Z,31.69
2023-04-30T11:09:02.105Z,33.41
2023-04-30T11:10:02.097Z,32.89
2023-04-30T11:11:02.116Z,33.28
2023-04-30T11:12:02.064Z,33.17
2023-04-30T11:13:02.056Z,32.65
2023-04-30T11:14:02.086Z,32.93
2023-04-30T11:15:02.029Z,33.39
2023-04-30T11:16:02.060Z,34.97
2023-04-30T11:17:02.001Z,38.82
2023-04-30T11:18:02.042Z,39.32
2023-04-30T11:19:01.992Z,42.03
2023-04-30T11:20:02.041Z,42.83
2023-04-30T11:21:01.972Z,41.60
2023-04-30T11:22:01.941Z,41.14
2023-04-30T11:23:01.931Z,40.11
2023-04-30T11:24:02.026Z,38.62
2023-04-30T11:25:01.914Z,37.73
2023-04-30T11:26:01.894Z,36.47
2023-04-30T11:27:01.884Z,35.83
2023-04-30T11:28:01.868Z,34.43
2023-04-30T11:29:01.903Z,32.57
2023-04-30T11:30:01.843Z,37.62
2023-04-30T11:31:02.150Z,38.18
2023-04-30T11:32:02.063Z,37.79
2023-04-30T11:33:01.837Z,37.45
2023-04-30T11:34:01.810Z,36.43
2023-04-30T11:35:01.798Z,36.39
2023-04-30T11:36:01.876Z,35.00
2023-04-30T11:37:01.771Z,34.76
2023-04-30T11:38:01.748Z,34.43
2023-04-30T11:39:01.753Z,34.73
2023-04-30T11:40:01.733Z,37.34
2023-04-30T11:41:01.717Z,36.33
2023-04-30T11:42:01.707Z,34.51
2023-04-30T11:43:01.694Z,36.01
2023-04-30T11:44:01.692Z,36.65
2023-04-30T11:45:01.662Z,34.72
2023-04-30T11:46:01.648Z,34.08
2023-04-30T11:47:01.823Z,34.31
2023-04-30T11:48:01.654Z,34.36
2023-04-30T11:49:01.642Z,33.62
2023-04-30T11:50:01.600Z,33.08
2023-04-30T11:51:01.597Z,34.17
2023-04-30T11:52:01.599Z,35.80
2023-04-30T11:53:01.569Z,37.35
2023-04-30T11:54:01.576Z,37.87
2023-04-30T11:55:01.546Z,37.41
2023-04-30T11:56:01.525Z,36.08
2023-04-30T11:57:01.545Z,34.53
2023-04-30T11:58:01.505Z,33.10
2023-04-30T11:59:01.508Z,32.65
2023-04-30T12:00:02.132Z,36.51
2023-04-30T12:01:01.572Z,35.96
2023-04-30T12:02:01.493Z,35.30
2023-04-30T12:03:01.836Z,32.77
2023-04-30T12:04:01.607Z,33.79
2023-04-30T12:05:01.434Z,32.67
2023-04-30T12:06:01.437Z,31.60
2023-04-30T12:07:01.393Z,35.38
2023-04-30T12:08:01.398Z,36.27
2023-04-30T12:09:01.388Z,36.21
2023-04-30T12:10:01.368Z,36.62
2023-04-30T12:11:01.344Z,37.35
2023-04-30T12:12:01.350Z,37.95
2023-04-30T12:13:01.313Z,37.70
2023-04-30T12:14:01.316Z,38.81
2023-04-30T12:15:01.288Z,39.31
2023-04-30T12:16:01.279Z,39.73
2023-04-30T12:17:01.323Z,39.35
2023-04-30T12:18:01.326Z,39.57
2023-04-30T12:19:01.247Z,39.69
2023-04-30T12:20:01.222Z,41.09
2023-04-30T12:21:01.214Z,41.74
2023-04-30T12:22:01.200Z,42.73
2023-04-30T12:23:01.216Z,42.71
2023-04-30T12:24:03.341Z,42.41
2023-04-30T12:25:01.166Z,42.27
2023-04-30T12:26:01.146Z,40.74
2023-04-30T12:27:01.139Z,41.06
2023-04-30T12:28:01.289Z,41.38
2023-04-30T12:29:02.137Z,40.98
2023-04-30T12:30:01.173Z,40.76
2023-04-30T12:31:01.110Z,40.58
2023-04-30T12:32:01.160Z,41.00
2023-04-30T12:33:01.161Z,40.84
2023-04-30T12:34:01.061Z,39.12
2023-04-30T12:35:01.068Z,37.85
2023-04-30T12:36:01.018Z,39.45
2023-04-30T12:37:01.014Z,39.47
2023-04-30T12:38:01.009Z,39.07
2023-04-30T12:39:00.981Z,39.17
2023-04-30T12:40:00.985Z,38.79
2023-04-30T12:41:02.023Z,39.51
2023-04-30T12:42:00.960Z,40.12
2023-04-30T12:43:00.934Z,40.72
2023-04-30T12:44:00.930Z,41.44
2023-04-30T12:45:00.906Z,42.25
2023-04-30T12:46:00.929Z,43.15
2023-04-30T12:47:00.939Z,42.65
2023-04-30T12:48:00.874Z,42.47
2023-04-30T12:49:00.861Z,42.87
2023-04-30T12:50:00.836Z,43.17
2023-04-30T12:51:00.822Z,42.95
2023-04-30T12:52:00.807Z,42.63